sensor_id;sensor_type;location;lat;lon;timestamp;temperature;humidity
3037;DHT22;1528;52.550;13.408;2023-11-22T00:01:50;2.60;30.70
3037;DHT22;1528;52.550;13.408;2023-11-22T00:04:36;2.50;30.90
3037;DHT22;1528;52.550;13.408;2023-11-22T00:07:21;2.60;31.20
3037;DHT22;1528;52.550;13.408;2023-11-22T00:10:07;2.60;30.90
3037;DHT22;1528;52.550;13.408;2023-11-22T00:12:55;2.50;30.80
3037;DHT22;1528;52.550;13.408;2023-11-22T00:15:41;2.60;30.80
3037;DHT22;1528;52.550;13.408;2023-11-22T00:18:26;2.60;30.80
3037;DHT22;1528;52.550;13.408;2023-11-22T00:21:12;2.60;30.60
3037;DHT22;1528;52.550;13.408;2023-11-22T00:23:57;2.50;30.70
3037;DHT22;1528;52.550;13.408;2023-11-22T00:26:43;2.50;30.80
3037;DHT22;1528;52.550;13.408;2023-11-22T00:29:30;2.50;30.90
3037;DHT22;1528;52.550;13.408;2023-11-22T00:32:16;2.50;31.00
3037;DHT22;1528;52.550;13.408;2023-11-22T00:35:01;2.40;30.90
3037;DHT22;1528;52.550;13.408;2023-11-22T00:37:47;2.50;30.90
3037;DHT22;1528;52.550;13.408;2023-11-22T00:40:32;2.40;30.50
3037;DHT22;1528;52.550;13.408;2023-11-22T00:43:18;2.50;30.80
3037;DHT22;1528;52.550;13.408;2023-11-22T00:46:05;2.50;30.80
3037;DHT22;1528;52.550;13.408;2023-11-22T00:48:51;2.40;31.00
3037;DHT22;1528;52.550;13.408;2023-11-22T00:51:36;2.30;31.00
3037;DHT22;1528;52.550;13.408;2023-11-22T00:54:22;2.30;31.30
3037;DHT22;1528;52.550;13.408;2023-11-22T00:57:08;2.30;31.40
3037;DHT22;1528;52.550;13.408;2023-11-22T00:59:53;2.20;31.50
3037;DHT22;1528;52.550;13.408;2023-11-22T01:02:41;2.20;31.60
3037;DHT22;1528;52.550;13.408;2023-11-22T01:05:26;2.30;31.80
3037;DHT22;1528;52.550;13.408;2023-11-22T01:08:13;2.10;31.90
3037;DHT22;1528;52.550;13.408;2023-11-22T01:10:59;2.10;32.10
3037;DHT22;1528;52.550;13.408;2023-11-22T01:13:44;2.00;32.10
3037;DHT22;1528;52.550;13.408;2023-11-22T01:16:31;2.00;32.20
3037;DHT22;1528;52.550;13.408;2023-11-22T01:19:18;1.90;32.30
3037;DHT22;1528;52.550;13.408;2023-11-22T01:22:03;1.90;32.40
3037;DHT22;1528;52.550;13.408;2023-11-22T01:24:50;1.80;32.60
3037;DHT22;1528;52.550;13.408;2023-11-22T01:27:36;1.80;32.90
3037;DHT22;1528;52.550;13.408;2023-11-22T01:30:21;1.70;32.90
3037;DHT22;1528;52.550;13.408;2023-11-22T01:33:07;1.70;33.10
3037;DHT22;1528;52.550;13.408;2023-11-22T01:35:54;1.60;33.20
3037;DHT22;1528;52.550;13.408;2023-11-22T01:38:39;1.60;33.20
3037;DHT22;1528;52.550;13.408;2023-11-22T01:41:25;1.50;33.20
3037;DHT22;1528;52.550;13.408;2023-11-22T01:44:11;1.50;33.70
3037;DHT22;1528;52.550;13.408;2023-11-22T01:46:56;1.50;33.70
3037;DHT22;1528;52.550;13.408;2023-11-22T01:49:42;1.40;33.60
3037;DHT22;1528;52.550;13.408;2023-11-22T01:52:29;1.40;33.60
3037;DHT22;1528;52.550;13.408;2023-11-22T01:55:15;1.30;33.60
3037;DHT22;1528;52.550;13.408;2023-11-22T01:58:01;1.30;33.70
3037;DHT22;1528;52.550;13.408;2023-11-22T02:00:50;1.30;33.80
3037;DHT22;1528;52.550;13.408;2023-11-22T02:03:36;1.30;33.70
3037;DHT22;1528;52.550;13.408;2023-11-22T02:06:22;1.20;33.60
3037;DHT22;1528;52.550;13.408;2023-11-22T02:09:10;1.20;33.50
3037;DHT22;1528;52.550;13.408;2023-11-22T02:11:59;1.20;33.40
3037;DHT22;1528;52.550;13.408;2023-11-22T02:14:45;1.20;34.10
3037;DHT22;1528;52.550;13.408;2023-11-22T02:17:31;1.30;33.50
3037;DHT22;1528;52.550;13.408;2023-11-22T02:20:18;1.30;33.20
3037;DHT22;1528;52.550;13.408;2023-11-22T02:23:07;1.20;32.80
3037;DHT22;1528;52.550;13.408;2023-11-22T02:25:54;1.20;32.60
3037;DHT22;1528;52.550;13.408;2023-11-22T02:28:39;1.20;31.80
3037;DHT22;1528;52.550;13.408;2023-11-22T02:31:25;1.20;31.40
3037;DHT22;1528;52.550;13.408;2023-11-22T02:34:12;1.20;30.90
3037;DHT22;1528;52.550;13.408;2023-11-22T02:37:00;1.10;29.80
3037;DHT22;1528;52.550;13.408;2023-11-22T02:39:54;1.10;30.20
3037;DHT22;1528;52.550;13.408;2023-11-22T02:42:41;1.20;29.60
3037;DHT22;1528;52.550;13.408;2023-11-22T02:45:28;1.10;30.00
3037;DHT22;1528;52.550;13.408;2023-11-22T02:48:16;1.00;29.30
3037;DHT22;1528;52.550;13.408;2023-11-22T02:51:03;1.00;29.60
3037;DHT22;1528;52.550;13.408;2023-11-22T02:53:50;1.00;29.80
3037;DHT22;1528;52.550;13.408;2023-11-22T02:56:37;1.00;30.00
3037;DHT22;1528;52.550;13.408;2023-11-22T02:59:23;1.00;30.30
3037;DHT22;1528;52.550;13.408;2023-11-22T03:02:08;1.20;31.00
3037;DHT22;1528;52.550;13.408;2023-11-22T03:04:54;1.00;32.10
3037;DHT22;1528;52.550;13.408;2023-11-22T03:07:40;1.00;32.00
3037;DHT22;1528;52.550;13.408;2023-11-22T03:10:26;1.10;32.60
3037;DHT22;1528;52.550;13.408;2023-11-22T03:13:13;1.10;33.00
3037;DHT22;1528;52.550;13.408;2023-11-22T03:15:59;1.20;33.40
3037;DHT22;1528;52.550;13.408;2023-11-22T03:18:44;1.10;33.60
3037;DHT22;1528;52.550;13.408;2023-11-22T03:21:30;1.10;33.90
3037;DHT22;1528;52.550;13.408;2023-11-22T03:24:15;1.10;34.00
3037;DHT22;1528;52.550;13.408;2023-11-22T03:27:01;1.00;34.10
3037;DHT22;1528;52.550;13.408;2023-11-22T03:29:49;0.90;34.80
3037;DHT22;1528;52.550;13.408;2023-11-22T03:32:34;0.90;34.20
3037;DHT22;1528;52.550;13.408;2023-11-22T03:35:21;0.90;34.30
3037;DHT22;1528;52.550;13.408;2023-11-22T03:38:07;0.90;34.20
3037;DHT22;1528;52.550;13.408;2023-11-22T03:40:53;0.90;34.00
3037;DHT22;1528;52.550;13.408;2023-11-22T03:43:38;0.90;33.90
3037;DHT22;1528;52.550;13.408;2023-11-22T03:46:25;0.80;33.50
3037;DHT22;1528;52.550;13.408;2023-11-22T03:49:11;0.80;33.30
3037;DHT22;1528;52.550;13.408;2023-11-22T03:51:57;0.40;33.00
3037;DHT22;1528;52.550;13.408;2023-11-22T03:54:42;0.70;33.40
3037;DHT22;1528;52.550;13.408;2023-11-22T03:57:28;0.60;33.30
3037;DHT22;1528;52.550;13.408;2023-11-22T04:00:14;0.60;33.40
3037;DHT22;1528;52.550;13.408;2023-11-22T04:03:02;0.60;33.60
3037;DHT22;1528;52.550;13.408;2023-11-22T04:05:47;0.50;33.60
3037;DHT22;1528;52.550;13.408;2023-11-22T04:08:33;0.50;33.70
3037;DHT22;1528;52.550;13.408;2023-11-22T04:11:19;0.50;33.70
3037;DHT22;1528;52.550;13.408;2023-11-22T04:14:06;0.50;33.80
3037;DHT22;1528;52.550;13.408;2023-11-22T04:16:51;0.50;33.90
3037;DHT22;1528;52.550;13.408;2023-11-22T04:19:38;0.50;34.30
3037;DHT22;1528;52.550;13.408;2023-11-22T04:22:24;0.50;34.30
3037;DHT22;1528;52.550;13.408;2023-11-22T04:25:09;0.50;34.20
3037;DHT22;1528;52.550;13.408;2023-11-22T04:27:57;0.50;34.00
3037;DHT22;1528;52.550;13.408;2023-11-22T04:30:43;0.40;34.00
3037;DHT22;1528;52.550;13.408;2023-11-22T04:33:29;0.40;34.00
3037;DHT22;1528;52.550;13.408;2023-11-22T04:36:16;0.40;34.10
3037;DHT22;1528;52.550;13.408;2023-11-22T04:39:02;0.30;33.90
3037;DHT22;1528;52.550;13.408;2023-11-22T04:41:48;0.30;33.60
3037;DHT22;1528;52.550;13.408;2023-11-22T04:44:35;0.40;33.90
3037;DHT22;1528;52.550;13.408;2023-11-22T04:47:20;0.30;33.80
3037;DHT22;1528;52.550;13.408;2023-11-22T04:50:07;0.30;33.80
3037;DHT22;1528;52.550;13.408;2023-11-22T04:52:54;0.30;33.90
3037;DHT22;1528;52.550;13.408;2023-11-22T04:55:39;0.30;33.80
3037;DHT22;1528;52.550;13.408;2023-11-22T04:58:25;0.30;34.00
3037;DHT22;1528;52.550;13.408;2023-11-22T05:01:11;0.30;33.70
3037;DHT22;1528;52.550;13.408;2023-11-22T05:03:56;0.30;33.70
3037;DHT22;1528;52.550;13.408;2023-11-22T05:06:42;0.30;33.70
3037;DHT22;1528;52.550;13.408;2023-11-22T05:09:30;0.30;33.60
3037;DHT22;1528;52.550;13.408;2023-11-22T05:12:15;0.40;33.90
3037;DHT22;1528;52.550;13.408;2023-11-22T05:15:01;0.20;33.50
3037;DHT22;1528;52.550;13.408;2023-11-22T05:17:47;0.20;33.40
3037;DHT22;1528;52.550;13.408;2023-11-22T05:20:32;0.20;33.40
3037;DHT22;1528;52.550;13.408;2023-11-22T05:23:18;0.30;33.40
3037;DHT22;1528;52.550;13.408;2023-11-22T05:26:05;0.30;33.20
3037;DHT22;1528;52.550;13.408;2023-11-22T05:28:51;0.20;32.60
3037;DHT22;1528;52.550;13.408;2023-11-22T05:31:37;0.30;32.70
3037;DHT22;1528;52.550;13.408;2023-11-22T05:34:23;0.40;32.20
3037;DHT22;1528;52.550;13.408;2023-11-22T05:37:09;0.20;31.90
3037;DHT22;1528;52.550;13.408;2023-11-22T05:39:55;0.30;31.80
3037;DHT22;1528;52.550;13.408;2023-11-22T05:42:41;0.20;31.70
3037;DHT22;1528;52.550;13.408;2023-11-22T05:45:27;0.20;31.70
3037;DHT22;1528;52.550;13.408;2023-11-22T05:48:12;0.20;31.80
3037;DHT22;1528;52.550;13.408;2023-11-22T05:50:58;0.20;32.00
3037;DHT22;1528;52.550;13.408;2023-11-22T05:53:44;0.20;32.60
3037;DHT22;1528;52.550;13.408;2023-11-22T05:56:30;0.20;31.90
3037;DHT22;1528;52.550;13.408;2023-11-22T05:59:16;0.20;31.90
3037;DHT22;1528;52.550;13.408;2023-11-22T06:02:02;0.20;32.20
3037;DHT22;1528;52.550;13.408;2023-11-22T06:04:47;0.20;32.00
3037;DHT22;1528;52.550;13.408;2023-11-22T06:07:33;0.10;32.20
3037;DHT22;1528;52.550;13.408;2023-11-22T06:10:19;0.10;32.20
3037;DHT22;1528;52.550;13.408;2023-11-22T06:13:04;0.10;32.60
3037;DHT22;1528;52.550;13.408;2023-11-22T06:15:51;0.10;32.60
3037;DHT22;1528;52.550;13.408;2023-11-22T06:18:37;0.10;32.60
3037;DHT22;1528;52.550;13.408;2023-11-22T06:21:24;0.10;32.60
3037;DHT22;1528;52.550;13.408;2023-11-22T06:24:11;0.10;32.60
3037;DHT22;1528;52.550;13.408;2023-11-22T06:27:00;0.10;32.60
3037;DHT22;1528;52.550;13.408;2023-11-22T06:29:45;0.20;32.80
3037;DHT22;1528;52.550;13.408;2023-11-22T06:32:33;0.10;32.60
3037;DHT22;1528;52.550;13.408;2023-11-22T06:35:18;0.10;32.80
3037;DHT22;1528;52.550;13.408;2023-11-22T06:38:04;0.20;32.70
3037;DHT22;1528;52.550;13.408;2023-11-22T06:40:56;0.10;32.70
3037;DHT22;1528;52.550;13.408;2023-11-22T06:43:42;0.10;32.90
3037;DHT22;1528;52.550;13.408;2023-11-22T06:46:27;0.10;32.90
3037;DHT22;1528;52.550;13.408;2023-11-22T06:49:14;0.10;33.00
3037;DHT22;1528;52.550;13.408;2023-11-22T06:52:00;0.10;33.00
3037;DHT22;1528;52.550;13.408;2023-11-22T06:54:45;0.10;33.00
3037;DHT22;1528;52.550;13.408;2023-11-22T06:57:31;0.30;33.20
3037;DHT22;1528;52.550;13.408;2023-11-22T07:00:17;0.20;32.90
3037;DHT22;1528;52.550;13.408;2023-11-22T07:03:04;0.10;32.90
3037;DHT22;1528;52.550;13.408;2023-11-22T07:05:51;0.10;33.00
3037;DHT22;1528;52.550;13.408;2023-11-22T07:08:37;0.10;33.00
3037;DHT22;1528;52.550;13.408;2023-11-22T07:11:23;0.10;33.30
3037;DHT22;1528;52.550;13.408;2023-11-22T07:14:09;0.20;33.40
3037;DHT22;1528;52.550;13.408;2023-11-22T07:16:55;0.20;33.60
3037;DHT22;1528;52.550;13.408;2023-11-22T07:19:41;0.20;33.70
3037;DHT22;1528;52.550;13.408;2023-11-22T07:22:32;0.20;33.80
3037;DHT22;1528;52.550;13.408;2023-11-22T07:25:17;0.20;33.90
3037;DHT22;1528;52.550;13.408;2023-11-22T07:28:03;0.30;34.30
3037;DHT22;1528;52.550;13.408;2023-11-22T07:30:48;0.20;34.40
3037;DHT22;1528;52.550;13.408;2023-11-22T07:33:34;0.30;34.50
3037;DHT22;1528;52.550;13.408;2023-11-22T07:36:19;0.30;34.60
3037;DHT22;1528;52.550;13.408;2023-11-22T07:39:06;0.30;34.70
3037;DHT22;1528;52.550;13.408;2023-11-22T07:41:52;0.30;34.80
3037;DHT22;1528;52.550;13.408;2023-11-22T07:44:42;0.40;34.80
3037;DHT22;1528;52.550;13.408;2023-11-22T07:47:31;0.40;34.80
3037;DHT22;1528;52.550;13.408;2023-11-22T07:50:17;0.50;34.80
3037;DHT22;1528;52.550;13.408;2023-11-22T07:53:03;0.50;34.60
3037;DHT22;1528;52.550;13.408;2023-11-22T07:55:51;0.50;34.50
3037;DHT22;1528;52.550;13.408;2023-11-22T07:58:36;0.40;34.70
3037;DHT22;1528;52.550;13.408;2023-11-22T08:01:22;0.50;34.60
3037;DHT22;1528;52.550;13.408;2023-11-22T08:04:07;0.50;34.50
3037;DHT22;1528;52.550;13.408;2023-11-22T08:06:54;0.60;35.20
3037;DHT22;1528;52.550;13.408;2023-11-22T08:09:41;0.60;35.40
3037;DHT22;1528;52.550;13.408;2023-11-22T08:12:29;0.60;34.60
3037;DHT22;1528;52.550;13.408;2023-11-22T08:15:14;0.60;34.70
3037;DHT22;1528;52.550;13.408;2023-11-22T08:18:02;0.50;34.60
3037;DHT22;1528;52.550;13.408;2023-11-22T08:20:47;0.50;34.40
3037;DHT22;1528;52.550;13.408;2023-11-22T08:23:33;0.60;34.60
3037;DHT22;1528;52.550;13.408;2023-11-22T08:26:19;0.90;34.40
3037;DHT22;1528;52.550;13.408;2023-11-22T08:29:06;0.70;34.30
3037;DHT22;1528;52.550;13.408;2023-11-22T08:31:51;0.70;34.00
3037;DHT22;1528;52.550;13.408;2023-11-22T08:34:37;0.70;33.90
3037;DHT22;1528;52.550;13.408;2023-11-22T08:37:23;0.80;33.80
3037;DHT22;1528;52.550;13.408;2023-11-22T08:40:10;0.70;33.30
3037;DHT22;1528;52.550;13.408;2023-11-22T08:42:58;0.80;33.60
3037;DHT22;1528;52.550;13.408;2023-11-22T08:45:45;0.80;33.10
3037;DHT22;1528;52.550;13.408;2023-11-22T08:48:30;0.80;33.10
3037;DHT22;1528;52.550;13.408;2023-11-22T08:51:16;0.80;32.70
3037;DHT22;1528;52.550;13.408;2023-11-22T08:54:02;0.90;32.80
3037;DHT22;1528;52.550;13.408;2023-11-22T08:56:48;0.90;32.40
3037;DHT22;1528;52.550;13.408;2023-11-22T08:59:37;0.90;32.30
3037;DHT22;1528;52.550;13.408;2023-11-22T09:02:23;1.00;32.20
3037;DHT22;1528;52.550;13.408;2023-11-22T09:05:09;1.10;31.40
3037;DHT22;1528;52.550;13.408;2023-11-22T09:07:56;1.10;31.10
3037;DHT22;1528;52.550;13.408;2023-11-22T09:10:43;1.10;30.20
3037;DHT22;1528;52.550;13.408;2023-11-22T09:13:29;1.10;29.60
3037;DHT22;1528;52.550;13.408;2023-11-22T09:16:14;1.20;29.90
3037;DHT22;1528;52.550;13.408;2023-11-22T09:19:02;1.20;30.00
3037;DHT22;1528;52.550;13.408;2023-11-22T09:21:48;1.30;29.80
3037;DHT22;1528;52.550;13.408;2023-11-22T09:24:33;1.50;30.00
3037;DHT22;1528;52.550;13.408;2023-11-22T09:27:21;1.40;30.00
3037;DHT22;1528;52.550;13.408;2023-11-22T09:30:08;1.60;29.70
3037;DHT22;1528;52.550;13.408;2023-11-22T09:33:03;1.80;29.10
3037;DHT22;1528;52.550;13.408;2023-11-22T09:35:50;2.10;28.20
3037;DHT22;1528;52.550;13.408;2023-11-22T09:38:35;2.30;27.40
3037;DHT22;1528;52.550;13.408;2023-11-22T09:41:21;2.60;27.50
3037;DHT22;1528;52.550;13.408;2023-11-22T09:44:09;2.80;25.70
3037;DHT22;1528;52.550;13.408;2023-11-22T09:46:56;3.00;25.40
3037;DHT22;1528;52.550;13.408;2023-11-22T09:49:42;3.30;25.20
3037;DHT22;1528;52.550;13.408;2023-11-22T09:52:32;3.60;24.60
3037;DHT22;1528;52.550;13.408;2023-11-22T09:55:20;3.80;23.40
3037;DHT22;1528;52.550;13.408;2023-11-22T09:58:06;4.30;22.20
3037;DHT22;1528;52.550;13.408;2023-11-22T10:00:52;3.90;21.80
3037;DHT22;1528;52.550;13.408;2023-11-22T10:03:39;4.10;20.90
3037;DHT22;1528;52.550;13.408;2023-11-22T10:06:25;4.20;20.90
3037;DHT22;1528;52.550;13.408;2023-11-22T10:09:12;4.30;20.30
3037;DHT22;1528;52.550;13.408;2023-11-22T10:11:59;4.40;19.90
3037;DHT22;1528;52.550;13.408;2023-11-22T10:14:46;4.40;19.20
3037;DHT22;1528;52.550;13.408;2023-11-22T10:17:32;4.70;20.10
3037;DHT22;1528;52.550;13.408;2023-11-22T10:20:18;4.90;18.60
3037;DHT22;1528;52.550;13.408;2023-11-22T10:23:03;5.10;19.20
3037;DHT22;1528;52.550;13.408;2023-11-22T10:25:54;5.10;18.20
3037;DHT22;1528;52.550;13.408;2023-11-22T10:28:41;5.30;19.30
3037;DHT22;1528;52.550;13.408;2023-11-22T10:31:27;5.10;18.00
3037;DHT22;1528;52.550;13.408;2023-11-22T10:34:13;5.20;17.90
3037;DHT22;1528;52.550;13.408;2023-11-22T10:36:58;5.00;17.60
3037;DHT22;1528;52.550;13.408;2023-11-22T10:39:50;5.10;18.30
3037;DHT22;1528;52.550;13.408;2023-11-22T10:42:39;5.00;18.20
3037;DHT22;1528;52.550;13.408;2023-11-22T10:45:29;4.90;18.00
3037;DHT22;1528;52.550;13.408;2023-11-22T10:48:15;4.80;18.10
3037;DHT22;1528;52.550;13.408;2023-11-22T10:51:02;5.10;17.90
3037;DHT22;1528;52.550;13.408;2023-11-22T10:53:49;4.90;17.70
3037;DHT22;1528;52.550;13.408;2023-11-22T10:56:40;5.10;17.80
3037;DHT22;1528;52.550;13.408;2023-11-22T10:59:28;5.20;18.00
3037;DHT22;1528;52.550;13.408;2023-11-22T11:02:16;5.40;18.00
3037;DHT22;1528;52.550;13.408;2023-11-22T11:05:10;5.30;16.90
3037;DHT22;1528;52.550;13.408;2023-11-22T11:08:02;5.30;17.20
3037;DHT22;1528;52.550;13.408;2023-11-22T11:10:54;5.40;17.00
3037;DHT22;1528;52.550;13.408;2023-11-22T11:13:40;5.40;17.00
3037;DHT22;1528;52.550;13.408;2023-11-22T11:16:29;5.20;17.10
3037;DHT22;1528;52.550;13.408;2023-11-22T11:19:18;5.20;18.00
3037;DHT22;1528;52.550;13.408;2023-11-22T11:22:08;5.20;17.10
3037;DHT22;1528;52.550;13.408;2023-11-22T11:25:01;4.90;16.10
3037;DHT22;1528;52.550;13.408;2023-11-22T11:27:56;5.00;17.00
3037;DHT22;1528;52.550;13.408;2023-11-22T11:30:46;5.00;17.20
3037;DHT22;1528;52.550;13.408;2023-11-22T11:33:37;5.00;17.40
3037;DHT22;1528;52.550;13.408;2023-11-22T11:36:38;5.10;16.80
3037;DHT22;1528;52.550;13.408;2023-11-22T11:39:26;5.00;17.00
3037;DHT22;1528;52.550;13.408;2023-11-22T11:42:14;5.00;17.20
3037;DHT22;1528;52.550;13.408;2023-11-22T11:45:04;5.00;17.60
3037;DHT22;1528;52.550;13.408;2023-11-22T11:47:50;4.90;17.30
3037;DHT22;1528;52.550;13.408;2023-11-22T11:50:38;4.80;16.70
3037;DHT22;1528;52.550;13.408;2023-11-22T11:53:23;4.90;17.50
3037;DHT22;1528;52.550;13.408;2023-11-22T11:56:09;4.90;16.90
3037;DHT22;1528;52.550;13.408;2023-11-22T11:58:56;5.00;17.00
3037;DHT22;1528;52.550;13.408;2023-11-22T12:01:43;4.90;17.10
3037;DHT22;1528;52.550;13.408;2023-11-22T12:04:31;4.90;16.80
3037;DHT22;1528;52.550;13.408;2023-11-22T12:07:18;4.90;17.30
3037;DHT22;1528;52.550;13.408;2023-11-22T12:10:20;4.90;17.10
3037;DHT22;1528;52.550;13.408;2023-11-22T12:13:06;5.00;17.00
3037;DHT22;1528;52.550;13.408;2023-11-22T12:15:52;5.00;16.90
3037;DHT22;1528;52.550;13.408;2023-11-22T12:18:40;5.10;16.90
3037;DHT22;1528;52.550;13.408;2023-11-22T12:21:30;5.10;17.10
3037;DHT22;1528;52.550;13.408;2023-11-22T12:24:16;5.10;16.60
3037;DHT22;1528;52.550;13.408;2023-11-22T12:27:04;5.10;16.30
3037;DHT22;1528;52.550;13.408;2023-11-22T12:29:54;5.10;16.20
3037;DHT22;1528;52.550;13.408;2023-11-22T12:32:40;5.00;15.50
3037;DHT22;1528;52.550;13.408;2023-11-22T12:35:26;4.90;15.90
3037;DHT22;1528;52.550;13.408;2023-11-22T12:38:12;4.90;15.80
3037;DHT22;1528;52.550;13.408;2023-11-22T12:40:57;4.90;15.30
3037;DHT22;1528;52.550;13.408;2023-11-22T12:43:45;4.90;15.30
3037;DHT22;1528;52.550;13.408;2023-11-22T12:46:47;4.90;15.60
3037;DHT22;1528;52.550;13.408;2023-11-22T12:49:43;4.90;15.80
3037;DHT22;1528;52.550;13.408;2023-11-22T12:52:29;5.00;15.90
3037;DHT22;1528;52.550;13.408;2023-11-22T12:55:16;5.00;15.70
3037;DHT22;1528;52.550;13.408;2023-11-22T12:58:02;5.00;16.00
3037;DHT22;1528;52.550;13.408;2023-11-22T13:00:50;5.10;15.90
3037;DHT22;1528;52.550;13.408;2023-11-22T13:03:38;5.10;15.80
3037;DHT22;1528;52.550;13.408;2023-11-22T13:06:24;5.20;16.00
3037;DHT22;1528;52.550;13.408;2023-11-22T13:09:10;5.20;15.80
3037;DHT22;1528;52.550;13.408;2023-11-22T13:11:59;5.20;15.50
3037;DHT22;1528;52.550;13.408;2023-11-22T13:14:44;5.20;15.60
3037;DHT22;1528;52.550;13.408;2023-11-22T13:17:33;5.20;15.80
3037;DHT22;1528;52.550;13.408;2023-11-22T13:20:19;5.20;16.10
3037;DHT22;1528;52.550;13.408;2023-11-22T13:23:07;5.20;15.70
3037;DHT22;1528;52.550;13.408;2023-11-22T13:25:52;5.20;15.60
3037;DHT22;1528;52.550;13.408;2023-11-22T13:28:38;5.20;14.80
3037;DHT22;1528;52.550;13.408;2023-11-22T13:31:25;5.20;15.00
3037;DHT22;1528;52.550;13.408;2023-11-22T13:34:12;5.20;14.60
3037;DHT22;1528;52.550;13.408;2023-11-22T13:36:58;5.20;14.50
3037;DHT22;1528;52.550;13.408;2023-11-22T13:39:43;5.20;14.40
3037;DHT22;1528;52.550;13.408;2023-11-22T13:42:29;5.30;14.40
3037;DHT22;1528;52.550;13.408;2023-11-22T13:45:15;5.10;14.00
3037;DHT22;1528;52.550;13.408;2023-11-22T13:48:02;5.10;14.00
3037;DHT22;1528;52.550;13.408;2023-11-22T13:50:52;5.00;13.80
3037;DHT22;1528;52.550;13.408;2023-11-22T13:53:37;5.00;14.20
3037;DHT22;1528;52.550;13.408;2023-11-22T13:56:27;5.00;13.70
3037;DHT22;1528;52.550;13.408;2023-11-22T13:59:12;5.00;14.40
3037;DHT22;1528;52.550;13.408;2023-11-22T14:01:58;5.00;13.80
3037;DHT22;1528;52.550;13.408;2023-11-22T14:04:45;5.10;13.50
3037;DHT22;1528;52.550;13.408;2023-11-22T14:07:32;4.90;13.70
3037;DHT22;1528;52.550;13.408;2023-11-22T14:10:18;4.80;13.80
3037;DHT22;1528;52.550;13.408;2023-11-22T14:13:06;4.80;13.90
3037;DHT22;1528;52.550;13.408;2023-11-22T14:15:52;4.70;13.90
3037;DHT22;1528;52.550;13.408;2023-11-22T14:18:38;4.70;15.00
3037;DHT22;1528;52.550;13.408;2023-11-22T14:21:23;4.70;14.60
3037;DHT22;1528;52.550;13.408;2023-11-22T14:24:11;4.70;14.70
3037;DHT22;1528;52.550;13.408;2023-11-22T14:26:56;4.70;15.00
3037;DHT22;1528;52.550;13.408;2023-11-22T14:29:44;4.60;15.40
3037;DHT22;1528;52.550;13.408;2023-11-22T14:32:33;4.60;15.60
3037;DHT22;1528;52.550;13.408;2023-11-22T14:35:19;4.60;16.00
3037;DHT22;1528;52.550;13.408;2023-11-22T14:38:05;4.50;16.00
3037;DHT22;1528;52.550;13.408;2023-11-22T14:40:52;4.50;16.30
3037;DHT22;1528;52.550;13.408;2023-11-22T14:43:38;4.70;16.50
3037;DHT22;1528;52.550;13.408;2023-11-22T14:46:23;4.30;16.10
3037;DHT22;1528;52.550;13.408;2023-11-22T14:49:08;4.30;15.80
3037;DHT22;1528;52.550;13.408;2023-11-22T14:51:54;4.20;15.90
3037;DHT22;1528;52.550;13.408;2023-11-22T14:54:40;4.10;15.80
3037;DHT22;1528;52.550;13.408;2023-11-22T14:57:27;4.10;15.80
3037;DHT22;1528;52.550;13.408;2023-11-22T15:00:13;4.00;16.20
3037;DHT22;1528;52.550;13.408;2023-11-22T15:02:59;4.00;16.40
3037;DHT22;1528;52.550;13.408;2023-11-22T15:05:44;4.00;16.60
3037;DHT22;1528;52.550;13.408;2023-11-22T15:08:30;4.00;16.70
3037;DHT22;1528;52.550;13.408;2023-11-22T15:11:16;4.00;16.70
3037;DHT22;1528;52.550;13.408;2023-11-22T15:14:03;3.90;16.60
3037;DHT22;1528;52.550;13.408;2023-11-22T15:16:49;3.90;16.70
3037;DHT22;1528;52.550;13.408;2023-11-22T15:19:35;3.90;16.70
3037;DHT22;1528;52.550;13.408;2023-11-22T15:22:22;3.90;16.70
3037;DHT22;1528;52.550;13.408;2023-11-22T15:25:08;4.00;16.90
3037;DHT22;1528;52.550;13.408;2023-11-22T15:27:54;4.00;17.20
3037;DHT22;1528;52.550;13.408;2023-11-22T15:30:41;4.00;17.80
3037;DHT22;1528;52.550;13.408;2023-11-22T15:33:26;4.00;18.10
3037;DHT22;1528;52.550;13.408;2023-11-22T15:36:12;4.20;17.90
3037;DHT22;1528;52.550;13.408;2023-11-22T15:38:58;3.90;17.80
3037;DHT22;1528;52.550;13.408;2023-11-22T15:41:44;3.80;18.60
3037;DHT22;1528;52.550;13.408;2023-11-22T15:44:29;3.80;18.30
3037;DHT22;1528;52.550;13.408;2023-11-22T15:47:16;3.80;19.00
3037;DHT22;1528;52.550;13.408;2023-11-22T15:50:01;3.90;18.80
3037;DHT22;1528;52.550;13.408;2023-11-22T15:52:50;3.80;19.10
3037;DHT22;1528;52.550;13.408;2023-11-22T15:55:35;3.80;19.40
3037;DHT22;1528;52.550;13.408;2023-11-22T15:58:21;3.90;19.80
3037;DHT22;1528;52.550;13.408;2023-11-22T16:01:07;3.80;19.50
3037;DHT22;1528;52.550;13.408;2023-11-22T16:03:54;3.70;19.70
3037;DHT22;1528;52.550;13.408;2023-11-22T16:06:40;3.70;19.80
3037;DHT22;1528;52.550;13.408;2023-11-22T16:09:25;3.70;20.00
3037;DHT22;1528;52.550;13.408;2023-11-22T16:12:11;3.70;19.70
3037;DHT22;1528;52.550;13.408;2023-11-22T16:15:03;3.70;20.20
3037;DHT22;1528;52.550;13.408;2023-11-22T16:17:49;3.60;19.60
3037;DHT22;1528;52.550;13.408;2023-11-22T16:20:36;3.60;19.40
3037;DHT22;1528;52.550;13.408;2023-11-22T16:23:21;3.60;19.60
3037;DHT22;1528;52.550;13.408;2023-11-22T16:26:07;3.60;19.60
3037;DHT22;1528;52.550;13.408;2023-11-22T16:28:53;3.60;19.70
3037;DHT22;1528;52.550;13.408;2023-11-22T16:31:38;3.60;19.90
3037;DHT22;1528;52.550;13.408;2023-11-22T16:34:24;3.50;19.70
3037;DHT22;1528;52.550;13.408;2023-11-22T16:37:11;3.50;19.90
3037;DHT22;1528;52.550;13.408;2023-11-22T16:39:57;3.50;19.80
3037;DHT22;1528;52.550;13.408;2023-11-22T16:42:48;3.50;19.90
3037;DHT22;1528;52.550;13.408;2023-11-22T16:45:33;3.60;20.00
3037;DHT22;1528;52.550;13.408;2023-11-22T16:48:20;3.60;20.10
3037;DHT22;1528;52.550;13.408;2023-11-22T16:51:06;3.50;20.00
3037;DHT22;1528;52.550;13.408;2023-11-22T16:53:52;3.50;20.20
3037;DHT22;1528;52.550;13.408;2023-11-22T16:56:38;3.50;20.20
3037;DHT22;1528;52.550;13.408;2023-11-22T16:59:24;3.60;20.40
3037;DHT22;1528;52.550;13.408;2023-11-22T17:02:10;3.50;20.40
3037;DHT22;1528;52.550;13.408;2023-11-22T17:04:57;3.50;20.40
3037;DHT22;1528;52.550;13.408;2023-11-22T17:07:43;3.50;20.60
3037;DHT22;1528;52.550;13.408;2023-11-22T17:10:30;3.50;20.70
3037;DHT22;1528;52.550;13.408;2023-11-22T17:13:16;3.60;20.80
3037;DHT22;1528;52.550;13.408;2023-11-22T17:16:02;3.50;20.70
3037;DHT22;1528;52.550;13.408;2023-11-22T17:18:47;3.40;20.70
3037;DHT22;1528;52.550;13.408;2023-11-22T17:21:33;3.40;20.80
3037;DHT22;1528;52.550;13.408;2023-11-22T17:24:18;3.40;20.80
3037;DHT22;1528;52.550;13.408;2023-11-22T17:27:05;3.40;20.90
3037;DHT22;1528;52.550;13.408;2023-11-22T17:29:51;3.40;21.20
3037;DHT22;1528;52.550;13.408;2023-11-22T17:32:38;3.40;21.40
3037;DHT22;1528;52.550;13.408;2023-11-22T17:35:24;3.40;21.50
3037;DHT22;1528;52.550;13.408;2023-11-22T17:38:09;3.40;21.60
3037;DHT22;1528;52.550;13.408;2023-11-22T17:40:55;3.40;21.60
3037;DHT22;1528;52.550;13.408;2023-11-22T17:43:42;3.50;21.70
3037;DHT22;1528;52.550;13.408;2023-11-22T17:46:27;3.50;21.60
3037;DHT22;1528;52.550;13.408;2023-11-22T17:49:15;3.50;21.60
3037;DHT22;1528;52.550;13.408;2023-11-22T17:52:01;3.50;21.60
3037;DHT22;1528;52.550;13.408;2023-11-22T17:54:47;3.40;21.50
3037;DHT22;1528;52.550;13.408;2023-11-22T17:57:32;3.40;21.60
3037;DHT22;1528;52.550;13.408;2023-11-22T18:00:22;3.30;21.90
3037;DHT22;1528;52.550;13.408;2023-11-22T18:03:08;3.30;22.10
3037;DHT22;1528;52.550;13.408;2023-11-22T18:05:54;3.20;22.30
3037;DHT22;1528;52.550;13.408;2023-11-22T18:08:40;3.20;22.50